21:45
Airports
History
Links
Donate
Help keep this website running!
PayPal
Bitcoin
This page is community maintained. The information is intended for PC simulator navigation or reference.
Always use approved charts for navigation.
6U0
Clark
Clark (6U0)
Grass Range, Montana, United States (59032)
4
Lat/Lng:47° 3' 49.91" N / 108° 49' 2.53" W
47.063863 / -108.817369
Elevation:3450'ft / 1052mMSL
ID / ICAO:6U0
Runways:1
Longest:07-25
Dirt 789m / 2,587ft
Nearby Weather20:54 GMT 2018-02-20
Nearby weather at KLWT, Lewistown Muni located 30.6 nautical miles from 6U0
Altimeter: 29.99
Visibility: 10.0 statute miles
Wind: 7 knots (from 270°)
Temp: -15°c / 5°f
Humidity: 50.2%

METAR: KLWT 202054Z AUTO 27007KT 10SM CLR M15/M23 A2999 RMK AO2 SLP258 T11501228 51006

(Powered by phpweather)
Nearby VORs <50NM
Nearby NDBs
Runway 07 / 25
Dimensions:788.6 x 24.4m 2587' x 80'ft
Surface:Dirt
Runway 07 [A]Runway 25 [B]
Heading:084°TH 264°TH
Lat:
Lng:
47° 3' 48.79"N
108° 49' 21.3"W
47° 3' 51.02"N
108° 48' 43.76"W
User Notes and Comments
47° 3' 49.91" N / 108° 49' 2.53" W
Distance To
Airport ID:
Nearby Airports
4 Holland Ranch 12.2 NM
6U8 W 266°
4 N Bar Ranch 16.6 NM
94U SSW 196°
(U) Lewistown Muni 30.6 NM
KLWT ( WX ) W 268°
(R) Sand Creek Wildlife Station 36.3 NM
MT79 N
4 Beacon Star Antique Airfield 38.0 NM
MT24 W 260°
(U) Roundup 42.7 NM
KRPX SSE 162°
4 Winifred 42.7 NM
9S7 NW 322°
VFR Chart
Flight Planning at SkyVector.com